createdAt,value
2023-03-02T00:03:48.198Z,179.32
2023-03-02T00:09:16.398Z,177.18
2023-03-02T00:14:44.786Z,193.00
2023-03-02T00:20:12.769Z,185.18
2023-03-02T00:25:40.577Z,182.65
2023-03-02T00:31:09.001Z,179.50
2023-03-02T00:36:35.932Z,193.77
2023-03-02T00:42:03.049Z,175.70
2023-03-02T00:47:30.200Z,187.23
2023-03-02T00:52:57.335Z,199.38
2023-03-02T00:58:26.798Z,186.00
2023-03-02T01:03:55.416Z,217.07
2023-03-02T01:09:23.356Z,197.27
2023-03-02T01:14:51.677Z,192.10
2023-03-02T01:20:19.448Z,204.15
2023-03-02T01:25:47.314Z,237.00
2023-03-02T01:31:15.487Z,239.63
2023-03-02T01:36:46.467Z,222.80
2023-03-02T01:42:14.543Z,233.88
2023-03-02T01:47:42.124Z,233.02
2023-03-02T01:53:16.860Z,240.07
2023-03-02T01:58:48.083Z,218.98
2023-03-02T02:04:15.494Z,222.15
2023-03-02T02:09:47.611Z,209.80
2023-03-02T02:15:15.460Z,202.53
2023-03-02T02:20:49.076Z,226.07
2023-03-02T02:26:45.628Z,216.65
2023-03-02T02:32:15.873Z,221.60
2023-03-02T02:37:47.702Z,218.35
2023-03-02T02:43:22.011Z,198.80
2023-03-02T02:48:49.009Z,221.98
2023-03-02T02:54:18.992Z,243.63
2023-03-02T02:59:52.997Z,241.52
2023-03-02T03:05:20.677Z,221.68
2023-03-02T03:10:48.609Z,203.25
2023-03-02T03:16:18.466Z,214.98
2023-03-02T03:21:49.546Z,215.80
2023-03-02T03:27:17.532Z,200.90
2023-03-02T03:32:45.576Z,213.70
2023-03-02T03:38:14.584Z,241.75
2023-03-02T03:43:43.459Z,211.25
2023-03-02T03:49:11.636Z,207.40
2023-03-02T03:54:39.589Z,214.95
2023-03-02T04:00:10.801Z,218.63
2023-03-02T04:05:52.146Z,222.60
2023-03-02T04:11:19.221Z,212.60
2023-03-02T04:16:46.896Z,197.13
2023-03-02T04:22:15.543Z,188.65
2023-03-02T04:27:42.674Z,199.13
2023-03-02T04:33:10.495Z,197.60
2023-03-02T04:38:38.518Z,189.15
2023-03-02T04:44:05.770Z,207.60
2023-03-02T04:49:32.509Z,208.63
2023-03-02T04:54:59.962Z,212.68
2023-03-02T05:00:45.830Z,211.65
2023-03-02T05:06:14.472Z,215.15
2023-03-02T05:11:41.979Z,227.73
2023-03-02T05:17:09.642Z,221.10
2023-03-02T05:22:36.572Z,248.35
2023-03-02T05:28:04.939Z,253.40
2023-03-02T05:33:33.142Z,279.50
2023-03-02T05:39:00.997Z,266.70
2023-03-02T05:44:28.728Z,287.90
2023-03-02T05:49:56.044Z,276.15
2023-03-02T05:55:24.107Z,220.02
2023-03-02T06:01:01.419Z,206.88
2023-03-02T06:06:29.186Z,231.65
2023-03-02T06:11:56.457Z,246.13
2023-03-02T06:17:23.738Z,235.98
2023-03-02T06:22:51.125Z,230.10
2023-03-02T06:28:22.403Z,344.35
2023-03-02T06:33:50.210Z,237.93
2023-03-02T06:39:17.774Z,233.05
2023-03-02T06:44:44.629Z,206.48
2023-03-02T06:50:12.383Z,191.45
2023-03-02T06:55:39.957Z,190.43
2023-03-02T07:01:08.321Z,202.02
2023-03-02T07:06:36.174Z,192.20
2023-03-02T07:12:04.411Z,180.68
2023-03-02T07:17:31.982Z,186.43
2023-03-02T07:22:59.193Z,176.18
2023-03-02T07:28:27.630Z,170.70
2023-03-02T07:33:54.961Z,176.05
2023-03-02T07:39:22.198Z,171.40
2023-03-02T07:44:49.426Z,176.43
2023-03-02T07:50:17.040Z,164.63
2023-03-02T07:55:44.334Z,170.02
2023-03-02T08:01:12.464Z,180.98
2023-03-02T08:06:42.466Z,191.30
2023-03-02T08:12:10.147Z,183.85
2023-03-02T08:17:37.015Z,175.60
2023-03-02T08:23:04.316Z,180.88
2023-03-02T08:28:31.163Z,166.55
2023-03-02T08:33:59.828Z,171.57
2023-03-02T08:39:30.495Z,170.77
2023-03-02T08:44:58.127Z,158.90
2023-03-02T08:50:25.344Z,128.50
2023-03-02T08:55:53.624Z,125.38
2023-03-02T09:01:28.919Z,132.98
2023-03-02T09:06:56.484Z,142.50
2023-03-02T09:12:24.312Z,119.63
2023-03-02T09:17:51.464Z,101.25
2023-03-02T09:23:20.827Z,93.78
2023-03-02T09:28:48.726Z,89.10
2023-03-02T09:34:16.418Z,76.72
2023-03-02T09:39:43.551Z,76.80
2023-03-02T09:45:23.788Z,67.90
2023-03-02T09:51:01.510Z,70.78
2023-03-02T09:56:28.802Z,68.32
2023-03-02T10:02:01.543Z,77.22
2023-03-02T10:07:38.405Z,66.90
2023-03-02T10:13:47.707Z,56.75
2023-03-02T10:19:18.434Z,52.10
2023-03-02T10:25:08.535Z,38.00
2023-03-02T10:30:38.209Z,46.33
2023-03-02T10:36:21.368Z,58.42
2023-03-02T10:41:56.341Z,49.85
2023-03-02T10:47:29.388Z,55.60
2023-03-02T10:53:01.570Z,49.30
2023-03-02T10:58:33.505Z,43.75
2023-03-02T11:04:02.393Z,51.55
2023-03-02T11:09:29.704Z,50.88
2023-03-02T11:15:27.234Z,59.55
2023-03-02T11:21:21.081Z,60.97
2023-03-02T11:26:59.826Z,64.85
2023-03-02T11:32:51.802Z,61.03
2023-03-02T11:38:28.798Z,53.58
2023-03-02T11:44:02.097Z,52.90
2023-03-02T11:49:57.428Z,64.63
2023-03-02T11:55:27.936Z,68.22
2023-03-02T12:00:57.205Z,66.38
2023-03-02T12:06:29.416Z,69.78
2023-03-02T12:12:26.276Z,76.40
2023-03-02T12:17:54.031Z,70.57
2023-03-02T12:23:27.174Z,67.75
2023-03-02T12:29:09.682Z,69.43
2023-03-02T12:34:42.110Z,75.20
2023-03-02T12:40:43.685Z,67.22
2023-03-02T12:46:11.149Z,77.25
2023-03-02T12:51:50.551Z,67.18
2023-03-02T12:57:20.632Z,74.85
2023-03-02T13:02:52.802Z,75.68
2023-03-02T13:08:25.803Z,73.15
2023-03-02T13:13:53.505Z,68.15
2023-03-02T13:19:20.989Z,74.95
2023-03-02T13:25:06.369Z,57.05
2023-03-02T13:30:37.730Z,58.78
2023-03-02T13:36:06.505Z,63.60
2023-03-02T13:41:36.897Z,48.45
2023-03-02T13:47:04.213Z,51.65
2023-03-02T13:52:32.647Z,41.25
2023-03-02T13:58:01.295Z,45.50
2023-03-02T14:03:31.205Z,57.25
2023-03-02T14:08:58.268Z,44.95
2023-03-02T14:14:29.514Z,56.83
2023-03-02T14:19:57.294Z,42.97
2023-03-02T14:25:25.518Z,36.42
2023-03-02T14:30:55.909Z,32.63
2023-03-02T14:36:33.613Z,31.77
2023-03-02T14:42:01.185Z,31.15
2023-03-02T14:47:28.301Z,38.70
2023-03-02T14:52:58.287Z,36.38
2023-03-02T14:58:32.905Z,34.45
2023-03-02T15:04:00.267Z,34.85
2023-03-02T15:09:28.310Z,34.72
2023-03-02T15:14:55.237Z,34.75
2023-03-02T15:20:22.788Z,31.88
2023-03-02T15:25:50.516Z,32.95
2023-03-02T15:31:19.101Z,37.00
2023-03-02T15:36:46.440Z,24.38
2023-03-02T15:42:14.392Z,22.25
2023-03-02T15:47:41.756Z,23.20
2023-03-02T15:53:09.328Z,23.77
2023-03-02T15:58:36.293Z,28.33
2023-03-02T16:04:04.337Z,26.17
2023-03-02T16:09:31.716Z,29.17
2023-03-02T16:14:59.858Z,29.48
2023-03-02T16:20:28.052Z,32.35
2023-03-02T16:25:55.442Z,41.25
2023-03-02T16:31:27.095Z,51.22
2023-03-02T16:36:55.343Z,82.43
2023-03-02T16:42:22.135Z,112.75
2023-03-02T16:47:51.667Z,101.22
2023-03-02T16:53:20.457Z,116.57
2023-03-02T16:58:47.829Z,116.40
2023-03-02T17:04:18.629Z,104.43
2023-03-02T17:09:45.955Z,114.78
2023-03-02T17:15:14.545Z,110.50
2023-03-02T17:20:41.566Z,118.20
2023-03-02T17:26:08.882Z,112.72
2023-03-02T17:31:36.866Z,82.03
2023-03-02T17:37:05.359Z,106.90
2023-03-02T17:42:33.024Z,96.10
2023-03-02T17:48:01.699Z,119.90
2023-03-02T17:53:29.040Z,107.03
2023-03-02T17:59:00.750Z,123.35
2023-03-02T18:04:28.174Z,105.35
2023-03-02T18:09:55.980Z,115.22
2023-03-02T18:15:24.788Z,117.18
2023-03-02T18:20:51.898Z,128.95
2023-03-02T18:26:19.966Z,123.47
2023-03-02T18:31:48.667Z,132.80
2023-03-02T18:37:19.082Z,115.60
2023-03-02T18:42:48.576Z,145.45
2023-03-02T18:48:18.974Z,145.10
2023-03-02T18:53:49.330Z,132.73
2023-03-02T18:59:18.155Z,168.77
2023-03-02T19:04:48.650Z,162.40
2023-03-02T19:10:16.712Z,148.20
2023-03-02T19:15:44.240Z,165.82
2023-03-02T19:21:12.672Z,130.48
2023-03-02T19:26:40.816Z,138.43
2023-03-02T19:32:08.726Z,163.10
2023-03-02T19:37:37.513Z,150.57
2023-03-02T19:43:05.511Z,121.97
2023-03-02T19:48:35.875Z,157.05
2023-03-02T19:54:04.199Z,135.00
2023-03-02T19:59:32.839Z,135.38
2023-03-02T20:05:01.967Z,164.35
2023-03-02T20:10:36.258Z,148.68
2023-03-02T20:21:33.506Z,163.55
2023-03-02T20:27:02.532Z,118.15
2023-03-02T20:32:30.286Z,173.07
2023-03-02T20:37:59.494Z,253.98
2023-03-02T20:43:27.663Z,286.73
2023-03-02T20:48:55.849Z,255.40
2023-03-02T20:54:26.216Z,256.73
2023-03-02T20:59:54.587Z,206.60
2023-03-02T21:05:24.277Z,290.75
2023-03-02T21:10:52.439Z,331.65
2023-03-02T21:16:38.996Z,285.30
2023-03-02T21:22:09.832Z,286.52
2023-03-02T21:27:41.204Z,252.82
2023-03-02T21:33:09.910Z,325.63
2023-03-02T21:38:40.547Z,458.85
2023-03-02T21:44:10.003Z,366.85
2023-03-02T21:49:37.158Z,363.50
2023-03-02T21:55:04.646Z,269.08
2023-03-02T22:00:36.134Z,261.30
2023-03-02T22:06:03.798Z,244.20
2023-03-02T22:11:35.496Z,414.02
2023-03-02T22:17:16.583Z,356.33
2023-03-02T22:22:45.286Z,243.60
2023-03-02T22:28:18.637Z,330.75
2023-03-02T22:33:46.752Z,292.48
2023-03-02T22:39:27.832Z,237.40
2023-03-02T22:45:17.131Z,315.10
2023-03-02T22:50:48.666Z,189.38
2023-03-02T22:56:37.627Z,198.15
2023-03-02T23:02:17.875Z,163.82
2023-03-02T23:07:45.554Z,175.90
2023-03-02T23:13:14.962Z,164.55
2023-03-02T23:18:44.168Z,162.40
2023-03-02T23:24:11.714Z,167.68
2023-03-02T23:29:41.109Z,187.93
2023-03-02T23:35:08.716Z,194.48
2023-03-02T23:40:37.097Z,194.50
2023-03-02T23:46:04.854Z,178.93
2023-03-02T23:51:33.432Z,184.35
2023-03-02T23:57:00.740Z,239.43
